sensor_id;sensor_type;location;lat;lon;timestamp;P1;durP1;ratioP1;P2;durP2;ratioP2
80725;SDS011;70113;59.928;10.878;2023-12-07T00:02:11;12.00;;;6.47;;
80725;SDS011;70113;59.928;10.878;2023-12-07T00:04:37;11.23;;;7.18;;
80725;SDS011;70113;59.928;10.878;2023-12-07T00:07:03;13.48;;;7.63;;
80725;SDS011;70113;59.928;10.878;2023-12-07T00:09:29;10.05;;;6.03;;
80725;SDS011;70113;59.928;10.878;2023-12-07T00:11:55;10.57;;;6.40;;
80725;SDS011;70113;59.928;10.878;2023-12-07T00:14:21;12.68;;;6.70;;
80725;SDS011;70113;59.928;10.878;2023-12-07T00:16:47;11.55;;;6.85;;
80725;SDS011;70113;59.928;10.878;2023-12-07T00:19:12;11.52;;;6.68;;
80725;SDS011;70113;59.928;10.878;2023-12-07T00:21:38;12.80;;;7.10;;
80725;SDS011;70113;59.928;10.878;2023-12-07T00:24:04;9.52;;;6.28;;
80725;SDS011;70113;59.928;10.878;2023-12-07T00:26:30;9.73;;;6.88;;
80725;SDS011;70113;59.928;10.878;2023-12-07T00:28:56;10.40;;;6.43;;
80725;SDS011;70113;59.928;10.878;2023-12-07T00:31:22;12.95;;;6.57;;
80725;SDS011;70113;59.928;10.878;2023-12-07T00:33:52;12.23;;;6.47;;
80725;SDS011;70113;59.928;10.878;2023-12-07T00:36:17;10.70;;;6.60;;
80725;SDS011;70113;59.928;10.878;2023-12-07T00:38:43;11.95;;;6.90;;
80725;SDS011;70113;59.928;10.878;2023-12-07T00:41:09;11.70;;;6.82;;
80725;SDS011;70113;59.928;10.878;2023-12-07T00:43:35;12.10;;;6.78;;
80725;SDS011;70113;59.928;10.878;2023-12-07T00:46:00;13.15;;;6.38;;
80725;SDS011;70113;59.928;10.878;2023-12-07T00:48:27;10.65;;;6.65;;
80725;SDS011;70113;59.928;10.878;2023-12-07T00:50:53;10.65;;;6.13;;
80725;SDS011;70113;59.928;10.878;2023-12-07T00:53:19;10.63;;;6.65;;
80725;SDS011;70113;59.928;10.878;2023-12-07T00:55:45;11.45;;;6.65;;
80725;SDS011;70113;59.928;10.878;2023-12-07T13:27:40;7.25;;;4.45;;
80725;SDS011;70113;59.928;10.878;2023-12-07T13:30:06;13.48;;;5.40;;
80725;SDS011;70113;59.928;10.878;2023-12-07T13:32:33;9.52;;;4.38;;
80725;SDS011;70113;59.928;10.878;2023-12-07T13:34:59;9.13;;;5.00;;
80725;SDS011;70113;59.928;10.878;2023-12-07T13:37:25;9.48;;;5.20;;
80725;SDS011;70113;59.928;10.878;2023-12-07T13:39:51;10.32;;;5.28;;
80725;SDS011;70113;59.928;10.878;2023-12-07T13:42:26;8.75;;;5.45;;
80725;SDS011;70113;59.928;10.878;2023-12-07T13:44:57;10.50;;;5.20;;
80725;SDS011;70113;59.928;10.878;2023-12-07T13:47:24;9.02;;;4.25;;
80725;SDS011;70113;59.928;10.878;2023-12-07T13:50:02;8.07;;;4.13;;
80725;SDS011;70113;59.928;10.878;2023-12-07T13:52:30;9.70;;;4.53;;
80725;SDS011;70113;59.928;10.878;2023-12-07T13:54:56;9.18;;;4.30;;
80725;SDS011;70113;59.928;10.878;2023-12-07T13:57:22;7.47;;;4.28;;
80725;SDS011;70113;59.928;10.878;2023-12-07T13:59:52;6.70;;;3.78;;
80725;SDS011;70113;59.928;10.878;2023-12-07T14:02:18;8.52;;;4.35;;
80725;SDS011;70113;59.928;10.878;2023-12-07T14:04:45;9.25;;;4.82;;
80725;SDS011;70113;59.928;10.878;2023-12-07T14:07:12;9.27;;;4.57;;
80725;SDS011;70113;59.928;10.878;2023-12-07T14:09:51;8.25;;;4.40;;
80725;SDS011;70113;59.928;10.878;2023-12-07T14:12:17;9.02;;;4.68;;
80725;SDS011;70113;59.928;10.878;2023-12-07T14:14:44;11.50;;;5.88;;
80725;SDS011;70113;59.928;10.878;2023-12-07T14:17:12;9.05;;;5.00;;
80725;SDS011;70113;59.928;10.878;2023-12-07T14:19:39;11.43;;;5.32;;
80725;SDS011;70113;59.928;10.878;2023-12-07T14:22:05;9.48;;;5.10;;
80725;SDS011;70113;59.928;10.878;2023-12-07T14:24:31;9.55;;;5.15;;
80725;SDS011;70113;59.928;10.878;2023-12-07T14:26:57;9.52;;;5.32;;
80725;SDS011;70113;59.928;10.878;2023-12-07T14:29:23;11.05;;;5.40;;
80725;SDS011;70113;59.928;10.878;2023-12-07T14:31:50;10.38;;;5.95;;
80725;SDS011;70113;59.928;10.878;2023-12-07T14:34:17;10.65;;;5.22;;
80725;SDS011;70113;59.928;10.878;2023-12-07T14:36:43;10.95;;;5.97;;
80725;SDS011;70113;59.928;10.878;2023-12-07T14:39:11;11.40;;;5.68;;
80725;SDS011;70113;59.928;10.878;2023-12-07T14:41:45;10.02;;;5.45;;
80725;SDS011;70113;59.928;10.878;2023-12-07T14:44:16;11.38;;;6.05;;
80725;SDS011;70113;59.928;10.878;2023-12-07T14:46:43;9.93;;;5.43;;
80725;SDS011;70113;59.928;10.878;2023-12-07T14:49:12;10.10;;;5.20;;
80725;SDS011;70113;59.928;10.878;2023-12-07T14:51:39;10.50;;;5.63;;
80725;SDS011;70113;59.928;10.878;2023-12-07T14:54:05;9.63;;;5.63;;
80725;SDS011;70113;59.928;10.878;2023-12-07T14:56:32;9.77;;;5.00;;
80725;SDS011;70113;59.928;10.878;2023-12-07T14:59:01;9.88;;;5.35;;
80725;SDS011;70113;59.928;10.878;2023-12-07T15:01:28;9.80;;;5.25;;
80725;SDS011;70113;59.928;10.878;2023-12-07T15:03:54;9.35;;;5.53;;
80725;SDS011;70113;59.928;10.878;2023-12-07T15:06:20;8.38;;;4.95;;
80725;SDS011;70113;59.928;10.878;2023-12-07T15:08:46;9.65;;;6.05;;
80725;SDS011;70113;59.928;10.878;2023-12-07T15:11:12;10.80;;;5.13;;
80725;SDS011;70113;59.928;10.878;2023-12-07T15:13:39;14.88;;;8.50;;
80725;SDS011;70113;59.928;10.878;2023-12-07T15:16:05;9.52;;;5.50;;
80725;SDS011;70113;59.928;10.878;2023-12-07T15:18:32;11.32;;;5.85;;
80725;SDS011;70113;59.928;10.878;2023-12-07T15:21:00;8.45;;;4.85;;
80725;SDS011;70113;59.928;10.878;2023-12-07T15:23:27;10.15;;;5.15;;
80725;SDS011;70113;59.928;10.878;2023-12-07T15:25:52;11.27;;;4.60;;
80725;SDS011;70113;59.928;10.878;2023-12-07T15:28:20;9.30;;;5.43;;
80725;SDS011;70113;59.928;10.878;2023-12-07T15:30:47;10.93;;;5.78;;
80725;SDS011;70113;59.928;10.878;2023-12-07T15:33:13;8.57;;;5.00;;
80725;SDS011;70113;59.928;10.878;2023-12-07T15:35:42;9.73;;;5.82;;
80725;SDS011;70113;59.928;10.878;2023-12-07T15:38:08;7.90;;;4.68;;
80725;SDS011;70113;59.928;10.878;2023-12-07T15:40:36;8.82;;;4.50;;
80725;SDS011;70113;59.928;10.878;2023-12-07T15:43:02;10.55;;;5.10;;
80725;SDS011;70113;59.928;10.878;2023-12-07T15:45:28;8.00;;;4.70;;
80725;SDS011;70113;59.928;10.878;2023-12-07T15:47:54;6.95;;;4.15;;
80725;SDS011;70113;59.928;10.878;2023-12-07T15:50:19;8.13;;;4.38;;
80725;SDS011;70113;59.928;10.878;2023-12-07T15:52:45;7.45;;;4.30;;
80725;SDS011;70113;59.928;10.878;2023-12-07T15:55:11;9.38;;;4.47;;
80725;SDS011;70113;59.928;10.878;2023-12-07T15:57:37;7.75;;;4.28;;
80725;SDS011;70113;59.928;10.878;2023-12-07T16:00:03;9.18;;;5.28;;
80725;SDS011;70113;59.928;10.878;2023-12-07T16:02:29;7.65;;;4.63;;
80725;SDS011;70113;59.928;10.878;2023-12-07T16:04:55;7.68;;;4.53;;
80725;SDS011;70113;59.928;10.878;2023-12-07T16:07:21;10.02;;;5.30;;
80725;SDS011;70113;59.928;10.878;2023-12-07T16:09:46;7.90;;;4.25;;
80725;SDS011;70113;59.928;10.878;2023-12-07T16:12:12;9.35;;;4.35;;
80725;SDS011;70113;59.928;10.878;2023-12-07T16:14:38;9.40;;;4.93;;
80725;SDS011;70113;59.928;10.878;2023-12-07T16:17:05;9.27;;;4.68;;
80725;SDS011;70113;59.928;10.878;2023-12-07T16:19:32;7.57;;;4.47;;
80725;SDS011;70113;59.928;10.878;2023-12-07T16:21:58;7.38;;;4.32;;
80725;SDS011;70113;59.928;10.878;2023-12-07T16:24:23;7.68;;;4.32;;
80725;SDS011;70113;59.928;10.878;2023-12-07T16:26:49;10.10;;;5.65;;
80725;SDS011;70113;59.928;10.878;2023-12-07T16:29:17;8.75;;;4.90;;
80725;SDS011;70113;59.928;10.878;2023-12-07T16:31:44;9.73;;;4.82;;
80725;SDS011;70113;59.928;10.878;2023-12-07T16:34:10;8.07;;;4.18;;
80725;SDS011;70113;59.928;10.878;2023-12-07T16:36:36;7.93;;;4.80;;
80725;SDS011;70113;59.928;10.878;2023-12-07T16:39:02;9.98;;;5.20;;
80725;SDS011;70113;59.928;10.878;2023-12-07T16:41:29;9.82;;;4.72;;
80725;SDS011;70113;59.928;10.878;2023-12-07T16:44:00;8.43;;;5.40;;
80725;SDS011;70113;59.928;10.878;2023-12-07T16:46:26;9.68;;;5.28;;
80725;SDS011;70113;59.928;10.878;2023-12-07T16:48:52;10.38;;;5.38;;
80725;SDS011;70113;59.928;10.878;2023-12-07T16:51:18;8.23;;;4.97;;
80725;SDS011;70113;59.928;10.878;2023-12-07T16:53:45;8.50;;;4.78;;
80725;SDS011;70113;59.928;10.878;2023-12-07T16:56:11;8.40;;;4.57;;
80725;SDS011;70113;59.928;10.878;2023-12-07T16:58:37;11.32;;;4.95;;
80725;SDS011;70113;59.928;10.878;2023-12-07T17:01:03;10.63;;;4.72;;
80725;SDS011;70113;59.928;10.878;2023-12-07T17:03:29;9.25;;;4.80;;
80725;SDS011;70113;59.928;10.878;2023-12-07T17:05:57;9.77;;;4.97;;
80725;SDS011;70113;59.928;10.878;2023-12-07T17:08:23;9.32;;;4.60;;
80725;SDS011;70113;59.928;10.878;2023-12-07T17:10:49;8.85;;;4.80;;
80725;SDS011;70113;59.928;10.878;2023-12-07T17:13:16;8.38;;;4.68;;
80725;SDS011;70113;59.928;10.878;2023-12-07T17:15:42;8.38;;;4.68;;
80725;SDS011;70113;59.928;10.878;2023-12-07T17:18:09;10.38;;;4.57;;
80725;SDS011;70113;59.928;10.878;2023-12-07T17:20:35;9.15;;;4.47;;
80725;SDS011;70113;59.928;10.878;2023-12-07T17:23:01;8.57;;;3.88;;
80725;SDS011;70113;59.928;10.878;2023-12-07T17:25:27;11.02;;;5.07;;
80725;SDS011;70113;59.928;10.878;2023-12-07T17:27:53;8.63;;;4.55;;
80725;SDS011;70113;59.928;10.878;2023-12-07T17:30:19;9.77;;;4.68;;
80725;SDS011;70113;59.928;10.878;2023-12-07T17:32:46;8.43;;;4.68;;
80725;SDS011;70113;59.928;10.878;2023-12-07T17:35:13;8.35;;;4.32;;
80725;SDS011;70113;59.928;10.878;2023-12-07T17:37:39;6.80;;;3.80;;
80725;SDS011;70113;59.928;10.878;2023-12-07T17:40:05;7.68;;;4.28;;
80725;SDS011;70113;59.928;10.878;2023-12-07T17:42:32;9.68;;;4.68;;
80725;SDS011;70113;59.928;10.878;2023-12-07T17:44:58;10.02;;;4.65;;
80725;SDS011;70113;59.928;10.878;2023-12-07T17:47:23;9.35;;;4.47;;
80725;SDS011;70113;59.928;10.878;2023-12-07T17:49:51;10.10;;;5.38;;
80725;SDS011;70113;59.928;10.878;2023-12-07T17:52:17;10.63;;;5.00;;
80725;SDS011;70113;59.928;10.878;2023-12-07T17:54:43;10.35;;;5.70;;
80725;SDS011;70113;59.928;10.878;2023-12-07T17:57:09;13.38;;;5.57;;
80725;SDS011;70113;59.928;10.878;2023-12-07T17:59:35;10.82;;;5.22;;
80725;SDS011;70113;59.928;10.878;2023-12-07T18:02:01;8.00;;;4.60;;
80725;SDS011;70113;59.928;10.878;2023-12-07T18:04:27;10.70;;;5.13;;
80725;SDS011;70113;59.928;10.878;2023-12-07T18:06:53;10.75;;;5.18;;
80725;SDS011;70113;59.928;10.878;2023-12-07T18:09:19;10.68;;;6.03;;
80725;SDS011;70113;59.928;10.878;2023-12-07T18:11:45;10.13;;;5.70;;
80725;SDS011;70113;59.928;10.878;2023-12-07T18:14:11;11.00;;;5.65;;
80725;SDS011;70113;59.928;10.878;2023-12-07T18:16:37;11.85;;;5.65;;
80725;SDS011;70113;59.928;10.878;2023-12-07T18:19:03;10.63;;;5.20;;
80725;SDS011;70113;59.928;10.878;2023-12-07T18:21:30;11.05;;;5.80;;
80725;SDS011;70113;59.928;10.878;2023-12-07T18:23:56;10.45;;;5.88;;
80725;SDS011;70113;59.928;10.878;2023-12-07T18:26:27;10.25;;;5.53;;
80725;SDS011;70113;59.928;10.878;2023-12-07T18:28:55;9.65;;;6.40;;
80725;SDS011;70113;59.928;10.878;2023-12-07T18:31:21;8.40;;;4.82;;
80725;SDS011;70113;59.928;10.878;2023-12-07T18:33:47;12.82;;;6.00;;
80725;SDS011;70113;59.928;10.878;2023-12-07T18:36:14;11.38;;;5.97;;
80725;SDS011;70113;59.928;10.878;2023-12-07T18:38:40;10.13;;;5.18;;
80725;SDS011;70113;59.928;10.878;2023-12-07T18:41:06;10.63;;;5.90;;
80725;SDS011;70113;59.928;10.878;2023-12-07T18:43:32;13.13;;;6.45;;
80725;SDS011;70113;59.928;10.878;2023-12-07T18:45:57;12.75;;;6.65;;
80725;SDS011;70113;59.928;10.878;2023-12-07T18:48:23;12.20;;;7.03;;
80725;SDS011;70113;59.928;10.878;2023-12-07T18:50:49;10.35;;;6.47;;
80725;SDS011;70113;59.928;10.878;2023-12-07T18:53:15;11.73;;;5.85;;
80725;SDS011;70113;59.928;10.878;2023-12-07T18:55:41;12.07;;;6.95;;
80725;SDS011;70113;59.928;10.878;2023-12-07T18:58:07;15.50;;;6.43;;
80725;SDS011;70113;59.928;10.878;2023-12-07T19:00:32;11.80;;;6.63;;
80725;SDS011;70113;59.928;10.878;2023-12-07T19:02:59;13.02;;;7.57;;
80725;SDS011;70113;59.928;10.878;2023-12-07T19:05:25;12.15;;;6.70;;
80725;SDS011;70113;59.928;10.878;2023-12-07T19:07:51;11.65;;;6.15;;
80725;SDS011;70113;59.928;10.878;2023-12-07T19:10:17;11.98;;;6.57;;
80725;SDS011;70113;59.928;10.878;2023-12-07T19:12:44;10.57;;;5.78;;
80725;SDS011;70113;59.928;10.878;2023-12-07T19:15:10;13.23;;;6.40;;
80725;SDS011;70113;59.928;10.878;2023-12-07T19:17:36;12.88;;;6.72;;
80725;SDS011;70113;59.928;10.878;2023-12-07T19:20:02;12.68;;;6.22;;
80725;SDS011;70113;59.928;10.878;2023-12-07T19:22:28;12.55;;;6.90;;
80725;SDS011;70113;59.928;10.878;2023-12-07T19:24:53;12.13;;;6.53;;
80725;SDS011;70113;59.928;10.878;2023-12-07T19:27:19;13.07;;;5.75;;
80725;SDS011;70113;59.928;10.878;2023-12-07T19:29:45;10.90;;;6.18;;
80725;SDS011;70113;59.928;10.878;2023-12-07T19:32:11;9.85;;;5.57;;
80725;SDS011;70113;59.928;10.878;2023-12-07T19:34:37;10.75;;;6.05;;
80725;SDS011;70113;59.928;10.878;2023-12-07T19:37:03;13.27;;;5.60;;
80725;SDS011;70113;59.928;10.878;2023-12-07T19:39:29;10.07;;;6.28;;
80725;SDS011;70113;59.928;10.878;2023-12-07T19:42:01;11.68;;;5.57;;
80725;SDS011;70113;59.928;10.878;2023-12-07T19:44:30;10.65;;;5.63;;
80725;SDS011;70113;59.928;10.878;2023-12-07T19:46:56;11.45;;;5.88;;
80725;SDS011;70113;59.928;10.878;2023-12-07T19:49:22;10.95;;;5.63;;
80725;SDS011;70113;59.928;10.878;2023-12-07T19:51:48;9.70;;;5.45;;
80725;SDS011;70113;59.928;10.878;2023-12-07T19:54:14;9.68;;;5.22;;
80725;SDS011;70113;59.928;10.878;2023-12-07T19:56:41;11.02;;;5.97;;
80725;SDS011;70113;59.928;10.878;2023-12-07T19:59:07;11.10;;;6.03;;
80725;SDS011;70113;59.928;10.878;2023-12-07T20:01:33;12.57;;;7.03;;
80725;SDS011;70113;59.928;10.878;2023-12-07T20:03:58;12.77;;;7.13;;
80725;SDS011;70113;59.928;10.878;2023-12-07T20:06:24;11.85;;;6.60;;
80725;SDS011;70113;59.928;10.878;2023-12-07T20:08:51;13.82;;;6.85;;
80725;SDS011;70113;59.928;10.878;2023-12-07T20:11:17;12.25;;;6.85;;
80725;SDS011;70113;59.928;10.878;2023-12-07T20:13:44;11.65;;;6.63;;
80725;SDS011;70113;59.928;10.878;2023-12-07T20:16:16;13.52;;;6.97;;
80725;SDS011;70113;59.928;10.878;2023-12-07T20:18:42;11.40;;;5.90;;
80725;SDS011;70113;59.928;10.878;2023-12-07T20:21:09;11.23;;;6.10;;
80725;SDS011;70113;59.928;10.878;2023-12-07T22:09:01;11.70;;;5.10;;
80725;SDS011;70113;59.928;10.878;2023-12-07T22:11:27;10.27;;;5.20;;
80725;SDS011;70113;59.928;10.878;2023-12-07T22:13:53;11.10;;;5.18;;
80725;SDS011;70113;59.928;10.878;2023-12-07T22:16:19;10.25;;;4.38;;
80725;SDS011;70113;59.928;10.878;2023-12-07T22:18:44;8.20;;;3.85;;
80725;SDS011;70113;59.928;10.878;2023-12-07T22:21:10;8.73;;;4.57;;
80725;SDS011;70113;59.928;10.878;2023-12-07T22:23:39;9.52;;;4.55;;
80725;SDS011;70113;59.928;10.878;2023-12-07T22:26:08;9.17;;;4.17;;
80725;SDS011;70113;59.928;10.878;2023-12-07T22:28:33;8.75;;;3.90;;
80725;SDS011;70113;59.928;10.878;2023-12-07T22:30:59;7.32;;;3.45;;
80725;SDS011;70113;59.928;10.878;2023-12-07T22:33:25;7.63;;;4.07;;
80725;SDS011;70113;59.928;10.878;2023-12-07T22:35:51;8.40;;;4.20;;
80725;SDS011;70113;59.928;10.878;2023-12-07T22:38:17;7.28;;;4.05;;
80725;SDS011;70113;59.928;10.878;2023-12-07T22:40:43;8.18;;;4.30;;
80725;SDS011;70113;59.928;10.878;2023-12-07T22:43:09;7.82;;;3.88;;
80725;SDS011;70113;59.928;10.878;2023-12-07T22:45:35;9.07;;;4.05;;
80725;SDS011;70113;59.928;10.878;2023-12-07T22:48:01;7.80;;;3.72;;
80725;SDS011;70113;59.928;10.878;2023-12-07T22:50:28;9.63;;;3.80;;
80725;SDS011;70113;59.928;10.878;2023-12-07T22:52:54;9.63;;;4.47;;
80725;SDS011;70113;59.928;10.878;2023-12-07T22:55:20;7.80;;;3.90;;
80725;SDS011;70113;59.928;10.878;2023-12-07T22:57:46;8.07;;;4.25;;
80725;SDS011;70113;59.928;10.878;2023-12-07T23:00:12;8.60;;;4.53;;
80725;SDS011;70113;59.928;10.878;2023-12-07T23:02:47;8.65;;;3.92;;
80725;SDS011;70113;59.928;10.878;2023-12-07T23:05:14;7.30;;;4.38;;
80725;SDS011;70113;59.928;10.878;2023-12-07T23:07:41;7.10;;;3.33;;
80725;SDS011;70113;59.928;10.878;2023-12-07T23:10:07;7.72;;;3.42;;
80725;SDS011;70113;59.928;10.878;2023-12-07T23:12:33;6.30;;;3.20;;
80725;SDS011;70113;59.928;10.878;2023-12-07T23:14:59;7.50;;;3.97;;
80725;SDS011;70113;59.928;10.878;2023-12-07T23:17:25;7.47;;;3.58;;
80725;SDS011;70113;59.928;10.878;2023-12-07T23:19:51;7.03;;;3.53;;
80725;SDS011;70113;59.928;10.878;2023-12-07T23:22:16;7.43;;;4.00;;
80725;SDS011;70113;59.928;10.878;2023-12-07T23:24:42;5.85;;;3.17;;
80725;SDS011;70113;59.928;10.878;2023-12-07T23:27:08;6.95;;;3.33;;
80725;SDS011;70113;59.928;10.878;2023-12-07T23:29:34;8.60;;;3.72;;
80725;SDS011;70113;59.928;10.878;2023-12-07T23:32:00;8.88;;;3.55;;
80725;SDS011;70113;59.928;10.878;2023-12-07T23:34:25;6.68;;;3.47;;
80725;SDS011;70113;59.928;10.878;2023-12-07T23:36:51;8.18;;;3.55;;
80725;SDS011;70113;59.928;10.878;2023-12-07T23:39:17;9.50;;;4.00;;
80725;SDS011;70113;59.928;10.878;2023-12-07T23:41:43;7.82;;;3.58;;
80725;SDS011;70113;59.928;10.878;2023-12-07T23:44:09;7.50;;;3.92;;
80725;SDS011;70113;59.928;10.878;2023-12-07T23:46:34;8.07;;;4.05;;
80725;SDS011;70113;59.928;10.878;2023-12-07T23:49:00;9.05;;;4.35;;
80725;SDS011;70113;59.928;10.878;2023-12-07T23:51:26;8.50;;;4.15;;
80725;SDS011;70113;59.928;10.878;2023-12-07T23:53:52;9.13;;;4.40;;
80725;SDS011;70113;59.928;10.878;2023-12-07T23:56:18;8.70;;;4.05;;
80725;SDS011;70113;59.928;10.878;2023-12-07T23:58:45;7.65;;;3.85;;
